Time;durP1;ratioP1;P1;durP2;ratioP2;P2;SDS_P1;SDS_P2;PMS_P1;PMS_P2;Temp;Humidity;BMP_temperature;BMP_pressure;BME280_temperature;BME280_humidity;BME280_pressure;Samples;Min_cycle;Max_cycle;Signal;HPM_P1;HPM_P2
2021/10/10 00:01:36;;;;;;;9.90;8.90;;;;;;;;;;5107576;28;20624;-64
2021/10/10 00:04:03;;;;;;;10.60;9.27;;;;;;;;;;5109147;28;20530;-64
2021/10/10 00:06:29;;;;;;;11.40;9.20;;;;;;;;;;5108563;28;20686;-64
2021/10/10 00:08:55;;;;;;;9.77;8.60;;;;;;;;;;5109217;28;20179;-64
2021/10/10 00:11:21;;;;;;;11.37;9.60;;;;;;;;;;5089834;28;20591;-64
2021/10/10 00:13:47;;;;;;;12.67;8.70;;;;;;;;;;5088818;28;20566;-64
2021/10/10 00:16:13;;;;;;;10.10;9.07;;;;;;;;;;5104300;28;20242;-64
2021/10/10 00:18:39;;;;;;;9.70;8.37;;;;;;;;;;5108859;28;20171;-64
2021/10/10 00:21:06;;;;;;;9.93;8.90;;;;;;;;;;5093331;28;20673;-64
2021/10/10 00:23:32;;;;;;;9.33;8.37;;;;;;;;;;5069255;28;20200;-64
2021/10/10 00:25:58;;;;;;;12.37;9.17;;;;;;;;;;5101060;28;20186;-64
2021/10/10 00:28:24;;;;;;;10.43;8.73;;;;;;;;;;5109315;28;20175;-64
2021/10/10 00:30:50;;;;;;;10.33;8.70;;;;;;;;;;5077120;28;20554;-64
2021/10/10 00:33:16;;;;;;;11.33;9.23;;;;;;;;;;5074999;28;20285;-64
2021/10/10 00:35:42;;;;;;;10.83;8.83;;;;;;;;;;5096055;28;20184;-64
2021/10/10 00:38:08;;;;;;;10.83;9.33;;;;;;;;;;5088431;28;20172;-64
2021/10/10 00:40:34;;;;;;;10.20;9.07;;;;;;;;;;5099102;28;20628;-64
2021/10/10 00:43:00;;;;;;;10.83;8.63;;;;;;;;;;5092955;28;20625;-64
2021/10/10 00:45:26;;;;;;;10.83;9.73;;;;;;;;;;5102066;28;20659;-64
2021/10/10 00:47:53;;;;;;;11.20;8.67;;;;;;;;;;5073651;28;20205;-64
2021/10/10 00:50:19;;;;;;;10.30;7.73;;;;;;;;;;5100225;28;20186;-64
2021/10/10 00:52:45;;;;;;;10.73;9.30;;;;;;;;;;5112005;28;20167;-64
2021/10/10 00:55:12;;;;;;;11.03;8.57;;;;;;;;;;5085664;28;20195;-64
2021/10/10 00:57:41;;;;;;;10.60;8.47;;;;;;;;;;5072713;28;20195;-64
2021/10/10 01:00:08;;;;;;;10.63;8.80;;;;;;;;;;5098764;28;20270;-64
2021/10/10 01:02:36;;;;;;;9.60;8.67;;;;;;;;;;5111609;28;20252;-64
2021/10/10 01:05:02;;;;;;;8.70;7.83;;;;;;;;;;5111825;28;20634;-64
2021/10/10 01:07:28;;;;;;;9.33;8.33;;;;;;;;;;5111855;28;20741;-64
2021/10/10 01:09:54;;;;;;;9.27;8.00;;;;;;;;;;5088263;28;20183;-64
2021/10/10 01:12:20;;;;;;;11.40;8.20;;;;;;;;;;5090256;28;20183;-64
2021/10/10 01:14:46;;;;;;;10.40;7.97;;;;;;;;;;5095347;28;20219;-64
2021/10/10 01:17:12;;;;;;;8.20;7.50;;;;;;;;;;5093697;28;20665;-64
2021/10/10 01:19:39;;;;;;;8.63;7.57;;;;;;;;;;5108491;28;20757;-64
2021/10/10 01:22:05;;;;;;;9.07;7.90;;;;;;;;;;5091040;28;20206;-64
2021/10/10 01:24:31;;;;;;;8.33;7.53;;;;;;;;;;5091027;28;20204;-64
2021/10/10 01:26:57;;;;;;;9.20;8.30;;;;;;;;;;5071481;28;20183;-64
2021/10/10 01:29:23;;;;;;;8.87;7.97;;;;;;;;;;5073357;28;20172;-64
2021/10/10 01:31:50;;;;;;;11.30;7.57;;;;;;;;;;5092682;28;20229;-64
2021/10/10 01:34:16;;;;;;;8.53;7.63;;;;;;;;;;5111622;28;20175;-64
2021/10/10 01:36:42;;;;;;;9.00;8.10;;;;;;;;;;5090374;28;20483;-64
2021/10/10 01:39:08;;;;;;;7.83;7.00;;;;;;;;;;5091185;28;20186;-64
2021/10/10 01:41:34;;;;;;;9.33;7.53;;;;;;;;;;5090337;28;20183;-64
2021/10/10 01:44:00;;;;;;;9.80;7.53;;;;;;;;;;5092929;28;20175;-64
2021/10/10 01:46:26;;;;;;;7.77;7.07;;;;;;;;;;5092253;28;20168;-64
2021/10/10 01:48:52;;;;;;;8.77;7.23;;;;;;;;;;5090868;28;20197;-64
2021/10/10 01:51:18;;;;;;;10.03;7.70;;;;;;;;;;5106825;28;20179;-64
2021/10/10 01:53:44;;;;;;;8.10;7.03;;;;;;;;;;5110167;28;20179;-64
2021/10/10 01:56:11;;;;;;;10.07;7.23;;;;;;;;;;5097683;28;20262;-64
2021/10/10 01:58:37;;;;;;;8.43;7.53;;;;;;;;;;5111171;28;20188;-64
2021/10/10 02:01:03;;;;;;;7.23;6.53;;;;;;;;;;5095615;28;20172;-64
2021/10/10 02:03:29;;;;;;;6.77;6.03;;;;;;;;;;5099663;28;20239;-64
2021/10/10 02:05:55;;;;;;;11.53;7.63;;;;;;;;;;5091958;28;20210;-64
2021/10/10 02:08:21;;;;;;;10.43;7.27;;;;;;;;;;5092980;28;20283;-64
2021/10/10 02:10:47;;;;;;;8.10;7.27;;;;;;;;;;5097345;28;20176;-64
2021/10/10 02:13:13;;;;;;;7.77;6.47;;;;;;;;;;5090129;28;20176;-64
2021/10/10 02:15:39;;;;;;;9.57;7.23;;;;;;;;;;5083344;28;20701;-64
2021/10/10 02:18:06;;;;;;;8.13;7.30;;;;;;;;;;5110645;28;20224;-64
2021/10/10 02:20:32;;;;;;;7.53;6.73;;;;;;;;;;5099690;28;20270;-64
2021/10/10 02:22:58;;;;;;;8.50;6.50;;;;;;;;;;5071737;28;20230;-64
2021/10/10 02:25:24;;;;;;;9.57;6.63;;;;;;;;;;5080695;28;20190;-64
2021/10/10 02:27:50;;;;;;;8.07;6.67;;;;;;;;;;5109516;28;20167;-64
2021/10/10 02:30:16;;;;;;;6.60;5.97;;;;;;;;;;5083941;28;20637;-64
2021/10/10 02:32:43;;;;;;;8.33;6.87;;;;;;;;;;5071587;28;20208;-64
2021/10/10 02:35:09;;;;;;;7.70;6.53;;;;;;;;;;5078794;28;20649;-64
2021/10/10 02:37:38;;;;;;;6.60;5.97;;;;;;;;;;5091871;28;20778;-64
2021/10/10 02:40:05;;;;;;;7.97;6.50;;;;;;;;;;5085376;28;20688;-64
2021/10/10 02:42:31;;;;;;;8.13;7.30;;;;;;;;;;5088641;28;20203;-64
2021/10/10 02:44:57;;;;;;;7.80;7.00;;;;;;;;;;5077094;28;20567;-64
2021/10/10 02:47:23;;;;;;;7.27;6.27;;;;;;;;;;5109718;28;20626;-64
2021/10/10 02:49:49;;;;;;;6.33;5.73;;;;;;;;;;5087276;28;20183;-64
2021/10/10 02:52:16;;;;;;;8.13;6.77;;;;;;;;;;5106114;28;20206;-64
2021/10/10 02:54:43;;;;;;;7.33;6.63;;;;;;;;;;5106184;28;20184;-64
2021/10/10 02:57:10;;;;;;;9.50;6.73;;;;;;;;;;5069694;28;20172;-64
2021/10/10 02:59:36;;;;;;;7.03;6.33;;;;;;;;;;5073643;28;21369;-64
2021/10/10 03:02:02;;;;;;;7.10;6.23;;;;;;;;;;5109311;28;20341;-64
2021/10/10 03:04:28;;;;;;;5.93;5.33;;;;;;;;;;5087061;28;20683;-64
2021/10/10 03:06:54;;;;;;;7.17;5.57;;;;;;;;;;5088881;28;20532;-64
2021/10/10 03:09:28;;;;;;;8.00;6.57;;;;;;;;;;5071454;28;20175;-64
2021/10/10 03:11:54;;;;;;;6.53;5.63;;;;;;;;;;5108818;28;20512;-64
2021/10/10 03:14:20;;;;;;;7.97;6.27;;;;;;;;;;5108824;28;20211;-64
2021/10/10 03:16:46;;;;;;;16.97;15.90;;;;;;;;;;5070637;28;20184;-64
2021/10/10 03:19:12;;;;;;;7.20;6.30;;;;;;;;;;5071058;28;20186;-64
2021/10/10 03:21:38;;;;;;;5.83;5.33;;;;;;;;;;5089875;28;20183;-64
2021/10/10 03:24:05;;;;;;;10.07;6.57;;;;;;;;;;5109456;28;20906;-64
2021/10/10 03:26:31;;;;;;;6.10;5.50;;;;;;;;;;5106527;28;20653;-64
2021/10/10 03:28:57;;;;;;;6.97;5.87;;;;;;;;;;5109796;28;20573;-64
2021/10/10 03:31:23;;;;;;;9.40;6.73;;;;;;;;;;5073039;28;20516;-64
2021/10/10 03:33:49;;;;;;;7.00;6.30;;;;;;;;;;5089134;28;20203;-64
2021/10/10 03:36:15;;;;;;;6.60;5.87;;;;;;;;;;5086548;28;20187;-64
2021/10/10 03:38:41;;;;;;;5.93;4.93;;;;;;;;;;5109553;28;20775;-64
2021/10/10 03:41:07;;;;;;;6.73;5.37;;;;;;;;;;5092384;28;20175;-63
2021/10/10 03:43:33;;;;;;;9.03;5.37;;;;;;;;;;5088917;28;20286;-64
2021/10/10 03:45:59;;;;;;;6.80;5.70;;;;;;;;;;5084266;28;20186;-64
2021/10/10 03:48:25;;;;;;;6.67;5.97;;;;;;;;;;5090901;28;20183;-63
2021/10/10 03:50:51;;;;;;;6.60;5.87;;;;;;;;;;5095368;28;20530;-64
2021/10/10 03:53:20;;;;;;;6.23;5.60;;;;;;;;;;5087373;28;20602;-63
2021/10/10 03:55:50;;;;;;;6.87;5.90;;;;;;;;;;5087938;28;20179;-63
2021/10/10 03:58:16;;;;;;;8.77;6.33;;;;;;;;;;5088338;28;20164;-63
2021/10/10 04:00:42;;;;;;;6.67;5.80;;;;;;;;;;5100374;28;20190;-64
2021/10/10 04:03:10;;;;;;;7.77;5.13;;;;;;;;;;5108786;28;20207;-63
2021/10/10 04:05:40;;;;;;;7.03;5.77;;;;;;;;;;5107531;28;20190;-63
2021/10/10 04:08:06;;;;;;;7.27;6.57;;;;;;;;;;5090729;28;20649;-63
2021/10/10 04:10:33;;;;;;;6.33;5.67;;;;;;;;;;5098509;28;20207;-63
2021/10/10 04:12:59;;;;;;;6.83;6.10;;;;;;;;;;5087418;28;20266;-63
2021/10/10 04:15:25;;;;;;;7.90;5.70;;;;;;;;;;5079400;28;20701;-63
2021/10/10 04:17:51;;;;;;;6.57;5.60;;;;;;;;;;5094261;28;20190;-63
2021/10/10 04:20:18;;;;;;;9.03;6.43;;;;;;;;;;5086156;28;20707;-63
2021/10/10 04:22:45;;;;;;;6.93;5.23;;;;;;;;;;5099267;28;20202;-63
2021/10/10 04:25:11;;;;;;;6.73;6.13;;;;;;;;;;5111268;28;20627;-63
2021/10/10 04:27:38;;;;;;;6.87;5.87;;;;;;;;;;5111984;28;20556;-63
2021/10/10 04:30:06;;;;;;;7.80;6.00;;;;;;;;;;5087767;28;20188;-63
2021/10/10 04:32:32;;;;;;;5.97;5.37;;;;;;;;;;5073552;28;20280;-63
2021/10/10 04:34:58;;;;;;;7.50;6.00;;;;;;;;;;5079452;28;20269;-63
2021/10/10 04:37:24;;;;;;;6.17;5.57;;;;;;;;;;5112255;28;20167;-63
2021/10/10 04:39:50;;;;;;;5.77;5.17;;;;;;;;;;5089544;28;20194;-63
2021/10/10 04:42:16;;;;;;;7.30;5.77;;;;;;;;;;5072714;28;20709;-63
2021/10/10 04:44:42;;;;;;;6.60;5.67;;;;;;;;;;5095471;28;20190;-63
2021/10/10 04:47:08;;;;;;;8.57;5.47;;;;;;;;;;5093641;28;20174;-63
2021/10/10 04:49:34;;;;;;;6.43;5.77;;;;;;;;;;5091496;28;20179;-63
2021/10/10 04:52:04;;;;;;;7.20;5.37;;;;;;;;;;5091527;28;20534;-63
2021/10/10 04:54:33;;;;;;;6.47;5.43;;;;;;;;;;5075228;28;20180;-63
2021/10/10 04:57:01;;;;;;;6.83;5.90;;;;;;;;;;5111042;28;20258;-63
2021/10/10 04:59:27;;;;;;;6.30;5.70;;;;;;;;;;5092213;28;20542;-62
2021/10/10 05:01:53;;;;;;;10.00;6.10;;;;;;;;;;5091339;28;20554;-63
2021/10/10 05:04:19;;;;;;;5.87;5.30;;;;;;;;;;5108910;28;20270;-62
2021/10/10 05:06:45;;;;;;;7.43;4.57;;;;;;;;;;5111512;28;20264;-63
2021/10/10 05:09:11;;;;;;;6.13;5.40;;;;;;;;;;5112414;28;20198;-63
2021/10/10 05:11:37;;;;;;;6.10;5.50;;;;;;;;;;5090817;28;20174;-62
2021/10/10 05:14:04;;;;;;;6.50;5.50;;;;;;;;;;5091555;28;20211;-63
2021/10/10 05:16:30;;;;;;;6.68;6.03;;;;;;;;;;5108718;28;20422;-62
2021/10/10 05:18:56;;;;;;;6.23;5.50;;;;;;;;;;5112082;28;20622;-62
2021/10/10 05:21:22;;;;;;;5.83;5.33;;;;;;;;;;5094363;28;20207;-62
2021/10/10 05:23:48;;;;;;;6.07;5.07;;;;;;;;;;5091618;28;20261;-63
2021/10/10 05:26:14;;;;;;;7.37;6.73;;;;;;;;;;5106301;28;20232;-63
2021/10/10 05:28:40;;;;;;;6.80;6.10;;;;;;;;;;5111013;28;20721;-63
2021/10/10 05:31:06;;;;;;;7.53;6.80;;;;;;;;;;5096030;28;20221;-62
2021/10/10 05:33:32;;;;;;;8.93;7.17;;;;;;;;;;5073168;28;20291;-62
2021/10/10 05:35:58;;;;;;;6.57;5.87;;;;;;;;;;5086747;28;20664;-62
2021/10/10 05:38:24;;;;;;;6.80;5.77;;;;;;;;;;5111186;28;20180;-62
2021/10/10 05:40:50;;;;;;;7.87;5.70;;;;;;;;;;5079550;28;20183;-62
2021/10/10 05:43:18;;;;;;;7.30;5.60;;;;;;;;;;5091279;28;20249;-62
2021/10/10 05:45:44;;;;;;;8.73;6.47;;;;;;;;;;5102946;28;20209;-62
2021/10/10 05:48:10;;;;;;;6.03;5.27;;;;;;;;;;5111531;28;20171;-62
2021/10/10 05:50:36;;;;;;;6.23;5.67;;;;;;;;;;5084691;28;20182;-62
2021/10/10 05:53:07;;;;;;;6.53;5.40;;;;;;;;;;5110168;28;20175;-62
2021/10/10 05:55:36;;;;;;;6.20;5.60;;;;;;;;;;5100313;28;20559;-62
2021/10/10 05:58:03;;;;;;;7.10;5.27;;;;;;;;;;5089936;28;20225;-62
2021/10/10 06:00:30;;;;;;;10.50;5.43;;;;;;;;;;5082645;28;20244;-62
2021/10/10 06:02:56;;;;;;;6.80;5.53;;;;;;;;;;5109729;28;20693;-62
2021/10/10 06:05:22;;;;;;;6.43;5.63;;;;;;;;;;5092050;28;20198;-63
2021/10/10 06:07:48;;;;;;;6.67;5.40;;;;;;;;;;5110376;28;20175;-62
2021/10/10 06:10:14;;;;;;;6.37;5.00;;;;;;;;;;5084733;28;20714;-63
2021/10/10 06:12:40;;;;;;;7.00;5.27;;;;;;;;;;5088842;28;20658;-63
2021/10/10 06:15:07;;;;;;;6.57;5.40;;;;;;;;;;5095933;28;20271;-63
2021/10/10 06:17:34;;;;;;;5.67;5.07;;;;;;;;;;5110602;28;20625;-63
2021/10/10 06:20:01;;;;;;;9.60;5.77;;;;;;;;;;5102975;28;20180;-63
2021/10/10 06:22:27;;;;;;;7.17;5.67;;;;;;;;;;5088415;28;20187;-63
2021/10/10 06:24:53;;;;;;;5.90;5.30;;;;;;;;;;5088944;28;20229;-63
2021/10/10 06:27:19;;;;;;;6.47;5.27;;;;;;;;;;5069486;28;20265;-63
2021/10/10 06:29:45;;;;;;;8.00;5.80;;;;;;;;;;5073946;28;20182;-62
2021/10/10 06:32:11;;;;;;;7.17;6.00;;;;;;;;;;5108996;28;20194;-63
2021/10/10 06:34:37;;;;;;;7.90;5.40;;;;;;;;;;5107069;28;20194;-63
2021/10/10 06:37:03;;;;;;;6.23;5.30;;;;;;;;;;5071712;28;20175;-63
2021/10/10 06:39:30;;;;;;;6.43;4.97;;;;;;;;;;5091391;28;20176;-63
2021/10/10 06:41:56;;;;;;;6.47;5.40;;;;;;;;;;5090892;28;20175;-63
2021/10/10 06:44:22;;;;;;;6.80;6.10;;;;;;;;;;5091092;28;20182;-63
2021/10/10 06:46:48;;;;;;;6.20;5.57;;;;;;;;;;5089789;28;20160;-63
2021/10/10 06:49:14;;;;;;;5.93;5.33;;;;;;;;;;5089964;28;20160;-63
2021/10/10 06:51:40;;;;;;;6.20;5.60;;;;;;;;;;5091239;28;20186;-63
2021/10/10 06:54:06;;;;;;;7.77;5.57;;;;;;;;;;5091788;28;20179;-63
2021/10/10 06:56:33;;;;;;;6.97;5.37;;;;;;;;;;5089825;28;20225;-63
2021/10/10 06:59:00;;;;;;;7.33;5.90;;;;;;;;;;5090209;28;20172;-63
2021/10/10 07:01:26;;;;;;;6.83;5.53;;;;;;;;;;5104099;28;20256;-63
2021/10/10 07:03:52;;;;;;;10.87;6.03;;;;;;;;;;5101932;28;20230;-63
2021/10/10 07:06:18;;;;;;;10.07;6.63;;;;;;;;;;5108220;28;20645;-63
2021/10/10 07:08:44;;;;;;;8.07;5.83;;;;;;;;;;5110073;28;20197;-63
2021/10/10 07:11:10;;;;;;;8.77;6.43;;;;;;;;;;5093292;28;20225;-63
2021/10/10 07:13:37;;;;;;;6.63;5.40;;;;;;;;;;5090522;28;20653;-63
2021/10/10 07:16:03;;;;;;;8.67;6.10;;;;;;;;;;5104300;28;20763;-63
2021/10/10 07:18:43;;;;;;;7.67;6.30;;;;;;;;;;5109857;28;20526;-63
2021/10/10 07:24:51;;;;;;;6.33;5.50;;;;;;;;;;5089424;28;20619;-63
2021/10/10 07:26:41;;;;;;;6.63;5.93;;;;;;;;;;5108914;28;20183;-63
2021/10/10 07:29:07;;;;;;;7.57;5.60;;;;;;;;;;5110470;28;20181;-63
2021/10/10 07:31:33;;;;;;;6.37;5.63;;;;;;;;;;5072772;28;20180;-63
2021/10/10 07:33:59;;;;;;;7.03;6.33;;;;;;;;;;5072086;28;20313;-63
2021/10/10 07:36:26;;;;;;;9.13;6.83;;;;;;;;;;5088642;28;20656;-63
2021/10/10 07:38:52;;;;;;;7.63;6.50;;;;;;;;;;5091199;28;20634;-63
2021/10/10 07:41:18;;;;;;;11.17;7.33;;;;;;;;;;5090860;28;20218;-63
2021/10/10 07:43:44;;;;;;;7.07;6.20;;;;;;;;;;5089996;28;20207;-63
2021/10/10 07:46:21;;;;;;;7.60;6.80;;;;;;;;;;5105635;28;20224;-63
2021/10/10 07:48:48;;;;;;;9.87;6.27;;;;;;;;;;5092325;28;20228;-63
2021/10/10 07:51:15;;;;;;;9.10;7.40;;;;;;;;;;5103240;28;20674;-63
2021/10/10 07:53:41;;;;;;;7.27;6.57;;;;;;;;;;5113968;28;20698;-63
2021/10/10 07:56:07;;;;;;;8.77;6.63;;;;;;;;;;5111758;28;20190;-63
2021/10/10 07:58:33;;;;;;;9.40;6.93;;;;;;;;;;5114432;28;20190;-63
2021/10/10 08:00:59;;;;;;;8.97;7.07;;;;;;;;;;5081697;28;20187;-63
2021/10/10 08:03:25;;;;;;;8.63;6.90;;;;;;;;;;5086732;28;20271;-63
2021/10/10 08:05:51;;;;;;;9.07;7.13;;;;;;;;;;5095404;28;20189;-63
2021/10/10 08:08:17;;;;;;;11.10;7.50;;;;;;;;;;5096043;28;20178;-63
2021/10/10 08:10:43;;;;;;;10.17;6.97;;;;;;;;;;5083101;28;20184;-63
2021/10/10 08:13:09;;;;;;;9.30;6.77;;;;;;;;;;5092888;28;20176;-63
2021/10/10 08:15:36;;;;;;;10.27;7.33;;;;;;;;;;5085516;28;20752;-63
2021/10/10 08:18:02;;;;;;;9.17;7.37;;;;;;;;;;5113735;28;20190;-63
2021/10/10 08:20:28;;;;;;;9.40;7.63;;;;;;;;;;5102244;28;20188;-63
2021/10/10 08:22:56;;;;;;;10.67;7.63;;;;;;;;;;5093102;28;20196;-63
2021/10/10 08:25:22;;;;;;;8.67;7.77;;;;;;;;;;5092483;28;20182;-63
2021/10/10 08:27:48;;;;;;;10.87;7.53;;;;;;;;;;5072852;28;20203;-63
2021/10/10 08:30:16;;;;;;;10.43;7.67;;;;;;;;;;5100203;28;20188;-63
2021/10/10 08:32:45;;;;;;;11.43;7.43;;;;;;;;;;5111870;28;20240;-63
2021/10/10 08:35:11;;;;;;;9.70;8.00;;;;;;;;;;5086224;28;20188;-63
2021/10/10 08:37:37;;;;;;;11.03;7.77;;;;;;;;;;5091476;28;20676;-63
2021/10/10 08:40:03;;;;;;;9.97;8.07;;;;;;;;;;5096101;28;20183;-63
2021/10/10 08:42:32;;;;;;;10.00;8.43;;;;;;;;;;5107657;28;20210;-63
2021/10/10 08:45:05;;;;;;;9.87;7.83;;;;;;;;;;5088268;28;20488;-63
2021/10/10 08:47:32;;;;;;;11.17;8.17;;;;;;;;;;5104664;28;20175;-63
2021/10/10 08:49:58;;;;;;;12.43;9.10;;;;;;;;;;5090754;28;20620;-63
2021/10/10 08:54:59;;;;;;;9.97;8.07;;;;;;;;;;5038009;28;20205;-61
2021/10/10 08:57:25;;;;;;;11.23;8.27;;;;;;;;;;5033043;28;20166;-60
2021/10/10 08:59:55;;;;;;;11.07;7.27;;;;;;;;;;5052824;28;20193;-61
2021/10/10 09:02:25;;;;;;;8.50;7.67;;;;;;;;;;5029792;28;20193;-61
2021/10/10 09:04:51;;;;;;;9.77;7.17;;;;;;;;;;5034339;28;20548;-61
2021/10/10 09:07:17;;;;;;;9.93;7.80;;;;;;;;;;5051703;28;20184;-60
2021/10/10 09:09:44;;;;;;;10.50;9.03;;;;;;;;;;5034102;28;20173;-61
2021/10/10 09:12:11;;;;;;;9.87;7.57;;;;;;;;;;5032815;28;20181;-61
2021/10/10 09:14:43;;;;;;;9.67;8.63;;;;;;;;;;5051604;28;20192;-61
2021/10/10 09:17:10;;;;;;;10.90;7.77;;;;;;;;;;5033941;28;20662;-61
2021/10/10 09:19:37;;;;;;;11.00;8.50;;;;;;;;;;5050743;28;20581;-61
2021/10/10 09:22:06;;;;;;;8.80;7.63;;;;;;;;;;5033585;28;20634;-60
2021/10/10 09:24:32;;;;;;;10.07;8.13;;;;;;;;;;5049380;28;20247;-59
2021/10/10 09:26:58;;;;;;;8.87;7.87;;;;;;;;;;5049905;28;20631;-60
2021/10/10 09:29:33;;;;;;;9.03;7.73;;;;;;;;;;5051069;28;20227;-60
2021/10/10 09:32:25;;;;;;;9.13;7.80;;;;;;;;;;5033268;28;20191;-59
2021/10/10 09:34:52;;;;;;;9.90;8.10;;;;;;;;;;5009071;28;20189;-60
2021/10/10 09:37:25;;;;;;;9.60;8.23;;;;;;;;;;5031726;28;20260;-61
2021/10/10 09:40:17;;;;;;;11.20;7.57;;;;;;;;;;5033810;28;20196;-59
2021/10/10 09:42:43;;;;;;;11.10;7.73;;;;;;;;;;5049774;28;20213;-59
2021/10/10 09:45:25;;;;;;;9.87;8.37;;;;;;;;;;5033985;28;20173;-60
2021/10/10 09:47:55;;;;;;;10.80;8.47;;;;;;;;;;5050943;28;20176;-60
2021/10/10 09:50:21;;;;;;;11.73;9.00;;;;;;;;;;5051859;28;20173;-61
2021/10/10 09:52:58;;;;;;;8.30;7.40;;;;;;;;;;5050708;28;20667;-59
2021/10/10 09:55:24;;;;;;;12.40;8.10;;;;;;;;;;5033804;28;20208;-60
2021/10/10 09:57:50;;;;;;;11.03;8.43;;;;;;;;;;5031692;28;20189;-59
2021/10/10 10:00:21;;;;;;;11.23;9.47;;;;;;;;;;5032058;28;20631;-60
2021/10/10 10:02:48;;;;;;;9.63;7.77;;;;;;;;;;5050064;28;20300;-60
2021/10/10 10:05:25;;;;;;;9.77;8.30;;;;;;;;;;5050826;28;20173;-60
2021/10/10 10:07:52;;;;;;;13.20;8.67;;;;;;;;;;5050254;28;20181;-59
2021/10/10 10:10:18;;;;;;;12.27;8.90;;;;;;;;;;5051149;28;20234;-59
2021/10/10 10:12:45;;;;;;;12.87;7.97;;;;;;;;;;5049074;28;20240;-61
2021/10/10 10:15:11;;;;;;;9.60;8.60;;;;;;;;;;5050232;28;20288;-60
2021/10/10 10:17:37;;;;;;;11.33;8.90;;;;;;;;;;5048830;28;20227;-61
2021/10/10 10:20:04;;;;;;;10.63;8.50;;;;;;;;;;5031253;28;20627;-60
2021/10/10 10:22:37;;;;;;;10.47;7.90;;;;;;;;;;5046257;28;20251;-60
2021/10/10 10:25:04;;;;;;;9.63;7.63;;;;;;;;;;5030733;28;20169;-59
2021/10/10 10:27:31;;;;;;;10.77;8.33;;;;;;;;;;5029585;28;20177;-59
2021/10/10 10:29:57;;;;;;;9.93;8.57;;;;;;;;;;5048586;28;20169;-60
2021/10/10 10:32:24;;;;;;;10.17;8.33;;;;;;;;;;5049066;28;20225;-60
2021/10/10 10:35:06;;;;;;;12.97;8.10;;;;;;;;;;5050009;28;20193;-59
2021/10/10 10:37:52;;;;;;;12.27;8.10;;;;;;;;;;5031978;28;20177;-60
2021/10/10 10:40:21;;;;;;;8.47;7.50;;;;;;;;;;5050171;28;20185;-60
2021/10/10 10:42:51;;;;;;;10.87;8.80;;;;;;;;;;5048557;28;20738;-61
2021/10/10 10:45:20;;;;;;;8.50;7.60;;;;;;;;;;5032719;28;20667;-60
2021/10/10 10:47:47;;;;;;;9.60;8.03;;;;;;;;;;5031743;28;20180;-60
2021/10/10 10:50:21;;;;;;;10.53;8.63;;;;;;;;;;5050568;28;20616;-60
2021/10/10 10:52:56;;;;;;;11.90;8.80;;;;;;;;;;5048398;28;20220;-60
2021/10/10 10:55:26;;;;;;;12.03;9.07;;;;;;;;;;5030786;28;20203;-61
2021/10/10 10:57:52;;;;;;;11.63;9.10;;;;;;;;;;5047396;28;20173;-60
2021/10/10 11:00:24;;;;;;;14.40;9.67;;;;;;;;;;5030915;28;20189;-60
2021/10/10 11:03:00;;;;;;;12.87;10.57;;;;;;;;;;5048139;28;20244;-60
2021/10/10 11:05:31;;;;;;;13.03;10.33;;;;;;;;;;5047026;28;20264;-60
2021/10/10 11:07:57;;;;;;;12.27;9.90;;;;;;;;;;5048061;28;20513;-60
2021/10/10 11:10:23;;;;;;;11.83;10.13;;;;;;;;;;5048790;28;20615;-60
2021/10/10 11:12:57;;;;;;;11.93;10.10;;;;;;;;;;5046989;28;20318;-60
2021/10/10 11:15:24;;;;;;;17.00;11.80;;;;;;;;;;5047225;28;20638;-60
2021/10/10 11:17:55;;;;;;;12.10;10.53;;;;;;;;;;5046865;28;20220;-61
2021/10/10 11:20:21;;;;;;;13.70;10.20;;;;;;;;;;5048549;28;20179;-60
2021/10/10 11:22:47;;;;;;;11.67;9.13;;;;;;;;;;5030278;28;20211;-60
2021/10/10 11:25:13;;;;;;;11.63;9.70;;;;;;;;;;5047656;28;20652;-61
2021/10/10 11:27:40;;;;;;;12.63;9.93;;;;;;;;;;5028693;28;20181;-60
2021/10/10 11:30:07;;;;;;;13.70;10.40;;;;;;;;;;5048275;28;20208;-59
2021/10/10 11:32:33;;;;;;;14.00;10.00;;;;;;;;;;5047803;28;20188;-60
2021/10/10 11:34:59;;;;;;;11.70;9.83;;;;;;;;;;5048256;28;20173;-59
2021/10/10 11:37:25;;;;;;;12.40;10.00;;;;;;;;;;5029548;28;20180;-60
2021/10/10 11:39:51;;;;;;;14.23;10.73;;;;;;;;;;5030178;28;20184;-59
2021/10/10 11:42:17;;;;;;;11.30;9.77;;;;;;;;;;5046746;28;20243;-60
2021/10/10 11:44:44;;;;;;;15.47;10.60;;;;;;;;;;5029554;28;20173;-60
2021/10/10 11:47:24;;;;;;;13.83;9.97;;;;;;;;;;5047945;28;20525;-60
2021/10/10 11:49:56;;;;;;;14.67;10.77;;;;;;;;;;5028439;28;20581;-60
2021/10/10 11:55:24;;;;;;;12.87;10.23;;;;;;;;;;5047775;28;20267;-60
2021/10/10 11:57:57;;;;;;;10.80;9.67;;;;;;;;;;5028643;28;20216;-60
2021/10/10 12:00:25;;;;;;;11.70;9.23;;;;;;;;;;5030271;28;20208;-60
2021/10/10 12:02:51;;;;;;;11.20;9.83;;;;;;;;;;5047393;28;20216;-60
2021/10/10 12:05:22;;;;;;;11.97;10.13;;;;;;;;;;5030017;28;20267;-60
2021/10/10 12:07:49;;;;;;;13.93;10.60;;;;;;;;;;5046313;28;20199;-60
2021/10/10 12:10:18;;;;;;;12.47;9.87;;;;;;;;;;5029993;28;20204;-61
2021/10/10 12:12:47;;;;;;;13.43;10.50;;;;;;;;;;5046856;28;20792;-60
2021/10/10 12:15:16;;;;;;;12.60;9.60;;;;;;;;;;5047923;28;20635;-60
2021/10/10 12:17:43;;;;;;;11.70;9.07;;;;;;;;;;5047184;28;20188;-60
2021/10/10 12:20:18;;;;;;;12.13;10.73;;;;;;;;;;5048112;28;20545;-60
2021/10/10 12:22:52;;;;;;;10.97;9.80;;;;;;;;;;5028781;28;20275;-60
2021/10/10 12:25:21;;;;;;;14.10;11.13;;;;;;;;;;5047642;28;20220;-60
2021/10/10 12:28:06;;;;;;;12.23;10.93;;;;;;;;;;5044973;28;20299;-60
2021/10/10 12:30:36;;;;;;;13.73;9.73;;;;;;;;;;5015412;28;20570;-60
2021/10/10 12:33:20;;;;;;;11.23;9.47;;;;;;;;;;5016114;28;20194;-60
2021/10/10 12:35:54;;;;;;;13.70;10.33;;;;;;;;;;5047783;28;20162;-60
2021/10/10 12:38:34;;;;;;;11.40;10.00;;;;;;;;;;5032577;28;20668;-60
2021/10/10 12:41:20;;;;;;;10.83;9.67;;;;;;;;;;5032106;28;20263;-60
2021/10/10 12:43:48;;;;;;;13.47;10.77;;;;;;;;;;5032198;28;20637;-60
2021/10/10 12:46:14;;;;;;;11.63;9.20;;;;;;;;;;5033244;28;20177;-60
2021/10/10 12:48:40;;;;;;;11.67;9.57;;;;;;;;;;5032781;28;20242;-60
2021/10/10 12:51:14;;;;;;;12.73;9.60;;;;;;;;;;5032825;28;20265;-60
2021/10/10 12:53:40;;;;;;;12.87;9.70;;;;;;;;;;5050139;28;20251;-60
2021/10/10 12:56:10;;;;;;;12.33;10.67;;;;;;;;;;5049724;28;20177;-60
2021/10/10 12:58:55;;;;;;;9.93;8.93;;;;;;;;;;5050725;28;20235;-60
2021/10/10 13:01:22;;;;;;;11.63;9.83;;;;;;;;;;5031859;28;20181;-60
2021/10/10 13:03:48;;;;;;;13.63;9.83;;;;;;;;;;5032553;28;20209;-60
2021/10/10 13:06:16;;;;;;;13.83;10.30;;;;;;;;;;5032424;28;20655;-60
2021/10/10 13:08:52;;;;;;;10.33;9.23;;;;;;;;;;5048908;28;20200;-60
2021/10/10 13:11:19;;;;;;;11.70;9.97;;;;;;;;;;5031238;28;20165;-60
2021/10/10 13:13:45;;;;;;;13.03;9.87;;;;;;;;;;5050001;28;20506;-60
2021/10/10 13:16:11;;;;;;;11.10;9.17;;;;;;;;;;5032286;28;20189;-60
2021/10/10 13:18:38;;;;;;;12.00;9.50;;;;;;;;;;5032125;28;20196;-61
2021/10/10 13:21:04;;;;;;;11.57;9.50;;;;;;;;;;5032097;28;20181;-60
2021/10/10 13:23:30;;;;;;;10.73;9.63;;;;;;;;;;5031884;28;20213;-60
2021/10/10 13:25:57;;;;;;;12.20;9.87;;;;;;;;;;5031048;28;20213;-61
2021/10/10 13:28:23;;;;;;;13.73;9.83;;;;;;;;;;5050290;28;20211;-61
2021/10/10 13:30:50;;;;;;;13.37;8.97;;;;;;;;;;5028478;28;20647;-60
2021/10/10 13:33:16;;;;;;;11.83;9.97;;;;;;;;;;5020586;28;20223;-61
2021/10/10 13:35:42;;;;;;;12.50;9.60;;;;;;;;;;5050053;28;20248;-61
2021/10/10 13:38:10;;;;;;;12.20;9.67;;;;;;;;;;5049664;28;20214;-60
2021/10/10 13:40:36;;;;;;;10.07;9.00;;;;;;;;;;5032117;28;20554;-61
2021/10/10 13:43:04;;;;;;;13.57;9.80;;;;;;;;;;5048657;28;20667;-61
2021/10/10 13:45:30;;;;;;;12.43;9.87;;;;;;;;;;5049758;28;20170;-60
2021/10/10 13:47:56;;;;;;;11.90;9.80;;;;;;;;;;5031570;28;20196;-60
2021/10/10 13:50:23;;;;;;;11.67;9.37;;;;;;;;;;5049210;28;20167;-60
2021/10/10 13:52:49;;;;;;;11.70;9.67;;;;;;;;;;5048681;28;20371;-60
2021/10/10 13:55:15;;;;;;;14.53;9.73;;;;;;;;;;5049635;28;20264;-60
2021/10/10 13:57:42;;;;;;;9.07;7.87;;;;;;;;;;5048644;28;20553;-60
2021/10/10 14:00:08;;;;;;;11.80;10.07;;;;;;;;;;5031645;28;20182;-60
2021/10/10 14:02:35;;;;;;;11.77;9.30;;;;;;;;;;5047636;28;20701;-60
2021/10/10 14:05:04;;;;;;;12.10;9.07;;;;;;;;;;5031392;28;20237;-61
2021/10/10 14:07:30;;;;;;;10.13;9.07;;;;;;;;;;5048732;28;20173;-60
2021/10/10 14:09:56;;;;;;;10.83;9.07;;;;;;;;;;5049336;28;20170;-61
2021/10/10 14:12:22;;;;;;;14.57;9.87;;;;;;;;;;5047972;28;20188;-61
2021/10/10 14:14:48;;;;;;;10.90;9.47;;;;;;;;;;5049028;28;20232;-60
2021/10/10 14:17:14;;;;;;;11.37;8.53;;;;;;;;;;5030659;28;20169;-60
2021/10/10 14:19:40;;;;;;;11.63;9.90;;;;;;;;;;5030978;28;20587;-60
2021/10/10 14:22:06;;;;;;;12.33;9.63;;;;;;;;;;5029278;28;20658;-61
2021/10/10 14:24:32;;;;;;;9.90;8.87;;;;;;;;;;5048002;28;20543;-60
2021/10/10 14:26:58;;;;;;;10.40;8.83;;;;;;;;;;5048394;28;20173;-60
2021/10/10 14:29:25;;;;;;;10.33;9.30;;;;;;;;;;5048818;28;20229;-60
2021/10/10 14:31:51;;;;;;;10.93;8.97;;;;;;;;;;5030791;28;20174;-60
2021/10/10 14:34:17;;;;;;;9.57;8.50;;;;;;;;;;5031253;28;20188;-60
2021/10/10 14:36:43;;;;;;;9.57;8.53;;;;;;;;;;5048834;28;20257;-60
2021/10/10 14:39:16;;;;;;;10.83;9.50;;;;;;;;;;5049272;28;20370;-60
2021/10/10 14:41:49;;;;;;;10.00;8.37;;;;;;;;;;5029728;28;20189;-61
2021/10/10 14:44:22;;;;;;;13.90;9.00;;;;;;;;;;5048637;28;20198;-60
2021/10/10 14:47:13;;;;;;;9.20;8.17;;;;;;;;;;5048355;28;20165;-61